createdAt,value
2018-06-29T00:01:55.763Z,20.51
2018-06-29T00:04:25.149Z,20.38
2018-06-29T00:06:54.468Z,20.45
2018-06-29T00:09:23.868Z,20.51
2018-06-29T00:11:53.188Z,20.41
2018-06-29T00:14:22.493Z,20.34
2018-06-29T00:16:51.825Z,20.31
2018-06-29T00:19:21.257Z,20.27
2018-06-29T00:21:50.579Z,20.17
2018-06-29T00:24:20.180Z,20.17
2018-06-29T00:26:49.789Z,20.19
2018-06-29T00:29:19.281Z,20.21
2018-06-29T00:31:48.623Z,20.19
2018-06-29T00:34:17.976Z,20.08
2018-06-29T00:36:47.453Z,20.13
2018-06-29T00:39:16.780Z,20.23
2018-06-29T00:41:46.103Z,20.27
2018-06-29T00:44:15.452Z,20.31
2018-06-29T00:46:44.520Z,20.34
2018-06-29T00:49:13.857Z,20.30
2018-06-29T00:51:43.199Z,20.17
2018-06-29T00:54:12.507Z,20.15
2018-06-29T00:56:41.848Z,20.07
2018-06-29T00:59:11.289Z,20.08
2018-06-29T01:01:40.604Z,20.15
2018-06-29T01:04:09.978Z,20.11
2018-06-29T01:06:39.347Z,20.09
2018-06-29T01:09:12.073Z,20.05
2018-06-29T01:11:41.431Z,20.01
2018-06-29T01:14:10.751Z,20.07
2018-06-29T01:16:40.074Z,19.96
2018-06-29T01:19:09.407Z,19.81
2018-06-29T01:21:38.743Z,19.74
2018-06-29T01:24:08.175Z,19.79
2018-06-29T01:26:37.620Z,19.71
2018-06-29T01:29:06.981Z,19.65
2018-06-29T01:31:36.326Z,19.71
2018-06-29T01:34:05.660Z,19.78
2018-06-29T01:36:34.978Z,19.78
2018-06-29T01:39:05.996Z,19.59
2018-06-29T01:41:35.323Z,19.65
2018-06-29T01:44:04.727Z,19.49
2018-06-29T01:46:34.072Z,19.37
2018-06-29T01:49:03.443Z,19.36
2018-06-29T01:51:32.784Z,19.37
2018-06-29T01:54:02.120Z,19.25
2018-06-29T01:56:31.447Z,19.15
2018-06-29T01:59:00.801Z,19.09
2018-06-29T02:01:30.108Z,19.01
2018-06-29T02:03:59.473Z,18.98
2018-06-29T02:06:28.817Z,19.02
2018-06-29T02:08:58.150Z,19.09
2018-06-29T02:11:27.500Z,19.09
2018-06-29T02:13:56.812Z,19.11
2018-06-29T02:16:26.180Z,19.19
2018-06-29T02:18:55.523Z,19.15
2018-06-29T02:21:24.904Z,19.26
2018-06-29T02:23:54.207Z,19.33
2018-06-29T02:26:23.562Z,19.38
2018-06-29T02:28:54.325Z,19.50
2018-06-29T02:31:23.656Z,19.40
2018-06-29T02:33:52.969Z,19.37
2018-06-29T02:36:22.307Z,19.31
2018-06-29T02:38:51.645Z,19.33
2018-06-29T02:41:20.973Z,19.29
2018-06-29T02:43:50.320Z,19.28
2018-06-29T02:46:19.681Z,19.35
2018-06-29T02:48:49.015Z,19.32
2018-06-29T02:51:18.357Z,19.18
2018-06-29T02:53:47.696Z,19.18
2018-06-29T02:56:17.039Z,19.06
2018-06-29T02:58:46.347Z,19.04
2018-06-29T03:01:15.725Z,19.03
2018-06-29T03:03:45.161Z,18.94
2018-06-29T03:06:14.592Z,18.94
2018-06-29T03:08:43.955Z,18.96
2018-06-29T03:11:13.285Z,18.96
2018-06-29T03:13:42.659Z,19.00
2018-06-29T03:16:12.092Z,19.00
2018-06-29T03:18:41.456Z,19.09
2018-06-29T03:21:11.779Z,19.11
2018-06-29T03:23:41.261Z,19.16
2018-06-29T03:26:10.665Z,19.19
2018-06-29T03:28:40.003Z,19.24
2018-06-29T03:31:09.369Z,19.35
2018-06-29T03:33:38.722Z,19.43
2018-06-29T03:36:08.049Z,19.39
2018-06-29T03:38:37.390Z,19.29
2018-06-29T03:41:07.004Z,18.20
2018-06-29T03:43:36.369Z,19.23
2018-06-29T03:46:05.777Z,19.39
2018-06-29T03:48:35.094Z,19.51
2018-06-29T03:51:04.436Z,19.50
2018-06-29T03:53:33.786Z,19.63
2018-06-29T03:56:03.159Z,19.70
2018-06-29T03:58:32.503Z,19.76
2018-06-29T04:01:01.836Z,19.82
2018-06-29T04:03:31.160Z,19.85
2018-06-29T04:06:00.477Z,19.81
2018-06-29T04:08:29.888Z,19.80
2018-06-29T04:10:59.237Z,19.85
2018-06-29T04:13:28.569Z,19.93
2018-06-29T04:15:57.623Z,20.02
2018-06-29T04:18:26.931Z,19.97
2018-06-29T04:20:56.264Z,19.90
2018-06-29T04:23:25.682Z,19.82
2018-06-29T04:25:55.006Z,19.80
2018-06-29T04:28:24.327Z,19.74
2018-06-29T04:30:53.667Z,19.78
2018-06-29T04:33:23.065Z,19.68
2018-06-29T04:35:52.388Z,19.82
2018-06-29T04:38:21.700Z,19.79
2018-06-29T04:40:51.039Z,19.55
2018-06-29T04:43:20.384Z,19.67
2018-06-29T04:45:49.719Z,19.71
2018-06-29T04:48:19.020Z,19.71
2018-06-29T04:50:48.344Z,19.80
2018-06-29T04:53:17.700Z,19.86
2018-06-29T04:55:47.008Z,19.99
2018-06-29T04:58:16.333Z,19.96
2018-06-29T05:00:45.660Z,19.93
2018-06-29T05:03:14.999Z,20.04
2018-06-29T05:05:44.301Z,20.13
2018-06-29T05:08:13.636Z,19.99
2018-06-29T05:10:42.976Z,19.94
2018-06-29T05:13:12.347Z,20.02
2018-06-29T05:15:41.724Z,20.10
2018-06-29T05:18:11.066Z,20.10
2018-06-29T05:20:40.400Z,20.12
2018-06-29T05:23:09.711Z,20.20
2018-06-29T05:25:39.051Z,20.45
2018-06-29T05:28:08.359Z,20.54
2018-06-29T05:30:37.689Z,20.77
2018-06-29T05:33:07.043Z,20.91
2018-06-29T05:35:36.384Z,21.03
2018-06-29T05:38:05.769Z,21.03
2018-06-29T05:40:35.108Z,21.02
2018-06-29T05:43:04.431Z,20.98
2018-06-29T05:45:33.781Z,20.87
2018-06-29T05:48:03.117Z,20.91
2018-06-29T05:50:32.504Z,20.92
2018-06-29T05:53:01.868Z,20.94
2018-06-29T05:55:31.221Z,21.06
2018-06-29T05:58:00.584Z,21.21
2018-06-29T06:00:29.916Z,21.26
2018-06-29T06:02:59.257Z,21.23
2018-06-29T06:05:28.581Z,21.32
2018-06-29T06:07:57.897Z,21.31
2018-06-29T06:10:27.349Z,21.43
2018-06-29T06:12:56.652Z,21.45
2018-06-29T06:15:25.989Z,21.37
2018-06-29T06:17:55.342Z,21.48
2018-06-29T06:20:25.483Z,21.55
2018-06-29T06:22:54.812Z,21.58
2018-06-29T06:25:24.137Z,21.57
2018-06-29T06:27:53.508Z,21.68
2018-06-29T06:30:22.821Z,21.81
2018-06-29T06:32:52.161Z,21.94
2018-06-29T06:35:21.552Z,22.04
2018-06-29T06:37:50.881Z,22.13
2018-06-29T06:40:20.269Z,22.05
2018-06-29T06:42:49.599Z,22.16
2018-06-29T06:45:18.931Z,22.34
2018-06-29T06:47:48.247Z,22.39
2018-06-29T06:50:17.568Z,22.56
2018-06-29T06:52:46.908Z,22.69
2018-06-29T06:55:16.212Z,22.71
2018-06-29T06:57:45.532Z,22.66
2018-06-29T07:00:14.902Z,22.59
2018-06-29T07:02:44.233Z,22.75
2018-06-29T07:05:13.569Z,22.70
2018-06-29T07:07:42.896Z,22.78
2018-06-29T07:10:12.720Z,22.82
2018-06-29T07:12:42.071Z,22.85
2018-06-29T07:15:11.428Z,22.76
2018-06-29T07:17:40.780Z,22.81
2018-06-29T07:20:10.716Z,22.97
2018-06-29T07:22:40.061Z,23.08
2018-06-29T07:25:09.407Z,23.20
2018-06-29T07:27:38.853Z,23.26
2018-06-29T07:30:08.990Z,23.25
2018-06-29T07:32:38.296Z,23.31
2018-06-29T07:35:07.780Z,23.58
2018-06-29T07:37:37.285Z,23.79
2018-06-29T07:40:06.974Z,23.78
2018-06-29T07:42:36.489Z,23.88
2018-06-29T07:45:06.278Z,23.95
2018-06-29T07:47:35.383Z,23.94
2018-06-29T07:50:05.207Z,24.12
2018-06-29T07:52:34.532Z,24.18
2018-06-29T07:55:04.223Z,24.15
2018-06-29T07:57:33.567Z,24.03
2018-06-29T08:00:02.900Z,23.85
2018-06-29T08:02:35.130Z,24.17
2018-06-29T08:05:04.735Z,24.32
2018-06-29T08:07:34.046Z,24.52
2018-06-29T08:10:03.425Z,24.68
2018-06-29T08:12:32.818Z,24.72
2018-06-29T08:15:02.148Z,24.71
2018-06-29T08:17:31.471Z,24.85
2018-06-29T08:20:00.811Z,25.01
2018-06-29T08:22:30.139Z,24.98
2018-06-29T08:25:07.980Z,25.02
2018-06-29T08:27:37.400Z,25.21
2018-06-29T08:30:07.948Z,25.33
2018-06-29T08:32:37.650Z,25.57
2018-06-29T08:35:07.269Z,25.51
2018-06-29T08:37:37.187Z,25.54
2018-06-29T08:40:07.731Z,25.49
2018-06-29T08:42:37.364Z,25.52
2018-06-29T08:45:07.879Z,25.58
2018-06-29T08:47:37.257Z,25.52
2018-06-29T08:50:06.672Z,25.38
2018-06-29T08:52:39.492Z,25.57
2018-06-29T08:55:08.898Z,25.73
2018-06-29T08:57:38.224Z,25.77
2018-06-29T09:00:08.661Z,25.84
2018-06-29T09:02:38.005Z,25.95
2018-06-29T09:05:07.877Z,26.02
2018-06-29T09:07:37.193Z,25.82
2018-06-29T09:10:06.776Z,25.92
2018-06-29T09:12:36.128Z,26.12
2018-06-29T09:15:05.456Z,26.09
2018-06-29T09:17:34.780Z,25.87
2018-06-29T09:20:04.315Z,25.99
2018-06-29T09:22:33.659Z,26.00
2018-06-29T09:25:03.104Z,26.14
2018-06-29T09:27:32.436Z,26.28
2018-06-29T09:30:01.889Z,26.39
2018-06-29T09:32:31.161Z,26.67
2018-06-29T09:35:00.456Z,26.67
2018-06-29T09:37:29.783Z,26.49
2018-06-29T09:39:59.106Z,26.45
2018-06-29T09:42:28.478Z,26.47
2018-06-29T09:44:57.995Z,26.56
2018-06-29T09:47:27.345Z,26.67
2018-06-29T09:49:56.672Z,26.66
2018-06-29T09:52:25.985Z,26.85
2018-06-29T09:54:55.320Z,26.66
2018-06-29T09:57:24.637Z,26.79
2018-06-29T09:59:53.968Z,27.08
2018-06-29T10:02:23.321Z,27.15
2018-06-29T10:04:52.642Z,27.28
2018-06-29T10:07:22.135Z,27.46
2018-06-29T10:09:51.456Z,27.52
2018-06-29T10:12:20.836Z,27.77
2018-06-29T10:14:50.183Z,27.43
2018-06-29T10:17:19.513Z,26.94
2018-06-29T10:19:48.889Z,27.16
2018-06-29T10:22:18.332Z,27.43
2018-06-29T10:24:47.604Z,27.38
2018-06-29T10:27:16.976Z,27.53
2018-06-29T10:29:46.291Z,27.52
2018-06-29T10:32:15.648Z,27.69
2018-06-29T10:34:44.968Z,27.79
2018-06-29T10:37:15.536Z,27.97
2018-06-29T10:39:44.855Z,28.09
2018-06-29T10:42:15.436Z,28.19
2018-06-29T10:44:44.877Z,28.30
2018-06-29T10:47:14.200Z,28.49
2018-06-29T10:49:43.570Z,28.51
2018-06-29T10:52:12.892Z,28.47
2018-06-29T10:54:42.216Z,28.38
2018-06-29T10:57:11.536Z,28.51
2018-06-29T10:59:40.844Z,28.57
2018-06-29T11:02:10.184Z,28.54
2018-06-29T11:04:39.520Z,28.52
2018-06-29T11:07:08.912Z,28.74
2018-06-29T11:09:38.237Z,29.04
2018-06-29T11:12:07.625Z,29.23
2018-06-29T11:14:36.947Z,29.21
2018-06-29T11:17:06.574Z,29.27
2018-06-29T11:19:35.933Z,29.21
2018-06-29T11:22:05.291Z,29.12
2018-06-29T11:24:34.777Z,29.06
2018-06-29T11:27:04.161Z,29.40
2018-06-29T11:29:33.479Z,29.49
2018-06-29T11:32:02.844Z,29.55
2018-06-29T11:34:32.173Z,29.67
2018-06-29T11:37:01.504Z,29.69
2018-06-29T11:39:30.836Z,29.60
2018-06-29T11:42:00.161Z,29.83
2018-06-29T11:44:29.529Z,30.06
2018-06-29T11:46:58.863Z,29.92
2018-06-29T11:49:28.195Z,29.96
2018-06-29T11:51:57.525Z,29.92
2018-06-29T11:54:26.871Z,29.97
2018-06-29T11:56:56.212Z,30.02
2018-06-29T11:59:25.559Z,30.07
2018-06-29T12:01:54.918Z,30.20
2018-06-29T12:04:24.257Z,30.51
2018-06-29T12:06:53.725Z,30.59
2018-06-29T12:09:23.009Z,30.72
2018-06-29T12:11:52.323Z,30.61
2018-06-29T12:14:21.653Z,30.54
2018-06-29T12:16:51.136Z,30.66
2018-06-29T12:19:20.600Z,30.89
2018-06-29T12:21:49.966Z,30.96
2018-06-29T12:24:19.298Z,30.78
2018-06-29T12:26:48.788Z,30.90
2018-06-29T12:29:18.115Z,31.02
2018-06-29T12:31:47.433Z,31.27
2018-06-29T12:34:16.769Z,31.23
2018-06-29T12:36:46.098Z,31.49
2018-06-29T12:39:15.415Z,31.74
2018-06-29T12:41:44.759Z,31.71
2018-06-29T12:44:14.184Z,31.71
2018-06-29T12:46:43.520Z,31.71
2018-06-29T12:49:12.868Z,31.76
2018-06-29T12:51:41.962Z,31.73
2018-06-29T12:54:11.263Z,31.86
2018-06-29T12:56:40.596Z,31.53
2018-06-29T12:59:09.916Z,31.54
2018-06-29T13:01:39.327Z,32.00
2018-06-29T13:04:08.755Z,32.11
2018-06-29T13:06:38.140Z,32.19
2018-06-29T13:09:10.548Z,32.58
2018-06-29T13:11:39.862Z,32.54
2018-06-29T13:14:09.248Z,32.62
2018-06-29T13:16:38.520Z,32.70
2018-06-29T13:19:07.887Z,32.10
2018-06-29T13:21:37.225Z,32.29
2018-06-29T13:24:06.580Z,32.49
2018-06-29T13:26:35.916Z,32.54
2018-06-29T13:29:05.236Z,32.68
2018-06-29T13:31:34.649Z,33.00
2018-06-29T13:34:03.975Z,32.90
2018-06-29T13:36:34.283Z,33.15
2018-06-29T13:39:03.769Z,32.89
2018-06-29T13:41:33.136Z,33.47
2018-06-29T13:44:02.515Z,33.54
2018-06-29T13:46:31.884Z,33.43
2018-06-29T13:49:01.220Z,32.83
2018-06-29T13:51:30.540Z,32.84
2018-06-29T13:53:59.848Z,33.06
2018-06-29T13:56:29.206Z,33.60
2018-06-29T13:58:58.828Z,33.27
2018-06-29T14:01:28.204Z,33.84
2018-06-29T14:03:57.644Z,34.84
2018-06-29T14:06:26.970Z,36.18
2018-06-29T14:08:56.402Z,37.37
2018-06-29T14:11:25.744Z,38.14
2018-06-29T14:13:55.077Z,38.22
2018-06-29T14:16:24.432Z,38.60
2018-06-29T14:18:53.807Z,38.79
2018-06-29T14:21:23.157Z,39.69
2018-06-29T14:23:52.488Z,40.00
2018-06-29T14:26:21.857Z,40.21
2018-06-29T14:28:51.233Z,40.58
2018-06-29T14:31:20.515Z,40.93
2018-06-29T14:33:49.907Z,40.75
2018-06-29T14:36:19.267Z,40.97
2018-06-29T14:38:48.669Z,40.88
2018-06-29T14:41:18.027Z,40.89
2018-06-29T14:43:47.395Z,40.32
2018-06-29T14:46:16.769Z,40.78
2018-06-29T14:48:46.060Z,40.66
2018-06-29T14:51:15.399Z,41.51
2018-06-29T14:53:44.741Z,42.30
2018-06-29T14:56:13.783Z,42.75
2018-06-29T14:58:43.132Z,42.85
2018-06-29T15:01:12.440Z,42.79
2018-06-29T15:03:41.800Z,43.35
2018-06-29T15:06:11.128Z,43.94
2018-06-29T15:08:40.525Z,43.28
2018-06-29T15:11:09.860Z,43.88
2018-06-29T15:13:39.172Z,43.48
2018-06-29T15:16:08.581Z,43.36
2018-06-29T15:18:37.900Z,43.08
2018-06-29T15:21:07.366Z,43.24
2018-06-29T15:23:36.791Z,43.27
2018-06-29T15:26:06.686Z,43.01
2018-06-29T15:28:36.037Z,42.33
2018-06-29T15:31:05.413Z,42.85
2018-06-29T15:33:34.713Z,43.11
2018-06-29T15:36:04.081Z,42.88
2018-06-29T15:38:33.409Z,41.75
2018-06-29T15:41:02.723Z,41.88
2018-06-29T15:43:32.045Z,42.10
2018-06-29T15:46:01.425Z,42.58
2018-06-29T15:48:30.769Z,42.99
2018-06-29T15:51:00.158Z,43.64
2018-06-29T15:53:29.503Z,43.27
2018-06-29T15:55:58.861Z,43.14
2018-06-29T15:58:28.320Z,43.08
2018-06-29T16:00:57.729Z,43.50
2018-06-29T16:03:27.052Z,43.69
2018-06-29T16:05:56.376Z,43.82
2018-06-29T16:08:25.781Z,43.93
2018-06-29T16:10:55.148Z,43.25
2018-06-29T16:13:24.543Z,43.17
2018-06-29T16:15:53.869Z,43.48
2018-06-29T16:18:23.228Z,42.91
2018-06-29T16:20:52.572Z,43.04
2018-06-29T16:23:22.052Z,42.96
2018-06-29T16:25:51.392Z,42.25
2018-06-29T16:28:20.716Z,42.41
2018-06-29T16:30:50.063Z,43.33
2018-06-29T16:33:19.372Z,43.07
2018-06-29T16:35:48.692Z,42.66
2018-06-29T16:38:18.017Z,42.35
2018-06-29T16:40:47.372Z,42.05
2018-06-29T16:43:16.714Z,41.61
2018-06-29T16:45:46.057Z,40.90
2018-06-29T16:48:15.380Z,40.90
2018-06-29T16:50:44.764Z,41.12
2018-06-29T16:53:14.048Z,41.93
2018-06-29T16:55:43.388Z,41.38
2018-06-29T16:58:12.824Z,41.74
2018-06-29T17:00:42.099Z,41.83
2018-06-29T17:03:11.759Z,42.57
2018-06-29T17:05:41.184Z,42.64
2018-06-29T17:08:11.351Z,42.98
2018-06-29T17:10:40.684Z,43.05
2018-06-29T17:13:10.020Z,42.00
2018-06-29T17:15:39.415Z,42.46
2018-06-29T17:18:08.750Z,42.05
2018-06-29T17:20:38.085Z,42.68
2018-06-29T17:23:08.232Z,42.23
2018-06-29T17:25:37.580Z,41.85
2018-06-29T17:28:07.128Z,40.81
2018-06-29T17:30:36.511Z,41.34
2018-06-29T17:33:06.332Z,40.92
2018-06-29T17:35:35.669Z,41.32
2018-06-29T17:38:05.012Z,41.66
2018-06-29T17:40:34.369Z,42.08
2018-06-29T17:43:03.757Z,41.72
2018-06-29T17:45:33.137Z,41.64
2018-06-29T17:48:02.469Z,41.87
2018-06-29T17:50:31.807Z,41.23
2018-06-29T17:53:01.140Z,41.27
2018-06-29T17:55:30.475Z,41.31
2018-06-29T17:57:59.804Z,40.07
2018-06-29T18:00:29.120Z,37.74
2018-06-29T18:02:58.511Z,36.03
2018-06-29T18:05:27.858Z,34.54
2018-06-29T18:07:57.136Z,33.63
2018-06-29T18:10:26.964Z,32.73
2018-06-29T18:12:56.439Z,31.84
2018-06-29T18:15:25.676Z,31.36
2018-06-29T18:17:55.040Z,30.76
2018-06-29T18:20:24.526Z,30.47
2018-06-29T18:22:53.896Z,30.17
2018-06-29T18:25:23.254Z,29.84
2018-06-29T18:27:52.863Z,29.66
2018-06-29T18:30:22.275Z,29.60
2018-06-29T18:32:51.815Z,29.56
2018-06-29T18:35:21.164Z,29.24
2018-06-29T18:37:50.512Z,28.88
2018-06-29T18:40:19.860Z,28.55
2018-06-29T18:42:49.213Z,28.23
2018-06-29T18:45:18.520Z,28.12
2018-06-29T18:47:47.921Z,28.02
2018-06-29T18:50:17.257Z,27.87
2018-06-29T18:52:46.576Z,27.70
2018-06-29T18:55:15.912Z,27.70
2018-06-29T18:57:45.266Z,27.53
2018-06-29T19:00:14.589Z,27.43
2018-06-29T19:02:44.233Z,27.31
2018-06-29T19:05:13.568Z,27.25
2018-06-29T19:07:42.913Z,27.16
2018-06-29T19:10:12.257Z,27.05
2018-06-29T19:12:41.598Z,26.93
2018-06-29T19:15:10.955Z,26.43
2018-06-29T19:17:40.561Z,26.68
2018-06-29T19:20:09.941Z,26.51
2018-06-29T19:22:39.270Z,26.37
2018-06-29T19:25:08.594Z,26.33
2018-06-29T19:27:37.896Z,26.20
2018-06-29T19:30:07.270Z,26.06
2018-06-29T19:32:36.601Z,25.94
2018-06-29T19:35:05.964Z,25.71
2018-06-29T19:37:35.337Z,25.67
2018-06-29T19:40:04.841Z,25.51
2018-06-29T19:42:34.240Z,25.39
2018-06-29T19:45:03.673Z,25.34
2018-06-29T19:47:33.013Z,25.20
2018-06-29T19:50:02.346Z,25.08
2018-06-29T19:52:31.656Z,24.94
2018-06-29T19:55:01.041Z,24.74
2018-06-29T19:57:30.378Z,24.58
2018-06-29T19:59:59.766Z,24.44
2018-06-29T20:02:29.120Z,24.27
2018-06-29T20:04:59.411Z,24.19
2018-06-29T20:07:28.773Z,23.97
2018-06-29T20:09:58.105Z,23.68
2018-06-29T20:12:27.448Z,23.59
2018-06-29T20:14:56.777Z,23.56
2018-06-29T20:17:26.128Z,23.45
2018-06-29T20:19:55.449Z,23.19
2018-06-29T20:22:24.798Z,22.94
2018-06-29T20:24:54.119Z,22.83
2018-06-29T20:27:23.473Z,22.83
2018-06-29T20:29:52.817Z,22.64
2018-06-29T20:32:22.176Z,22.53
2018-06-29T20:34:51.527Z,22.19
2018-06-29T20:37:20.852Z,21.98
2018-06-29T20:39:50.296Z,22.01
2018-06-29T20:42:19.626Z,21.94
2018-06-29T20:44:48.940Z,21.95
2018-06-29T20:47:18.261Z,22.03
2018-06-29T20:49:47.584Z,21.99
2018-06-29T20:52:16.920Z,22.08
2018-06-29T20:54:46.269Z,22.06
2018-06-29T20:57:15.683Z,22.06
2018-06-29T20:59:45.009Z,21.91
2018-06-29T21:02:14.337Z,21.91
2018-06-29T21:04:43.692Z,21.83
2018-06-29T21:07:13.010Z,21.82
2018-06-29T21:09:42.356Z,21.77
2018-06-29T21:12:11.684Z,21.82
2018-06-29T21:14:41.878Z,21.77
2018-06-29T21:17:11.227Z,21.79
2018-06-29T21:19:40.982Z,21.70
2018-06-29T21:22:10.663Z,21.54
2018-06-29T21:24:40.362Z,21.46
2018-06-29T21:27:09.920Z,21.49
2018-06-29T21:29:39.688Z,21.50
2018-06-29T21:32:10.013Z,21.46
2018-06-29T21:34:39.649Z,21.39
2018-06-29T21:37:09.365Z,21.33
2018-06-29T21:39:38.986Z,21.30
2018-06-29T21:42:08.911Z,21.34
2018-06-29T21:44:38.570Z,21.23
2018-06-29T21:47:08.269Z,21.10
2018-06-29T21:49:37.588Z,20.99
2018-06-29T21:52:07.024Z,20.96
2018-06-29T21:54:36.364Z,20.88
2018-06-29T21:57:05.871Z,20.79
2018-06-29T21:59:35.255Z,20.71
2018-06-29T22:02:04.631Z,20.65
2018-06-29T22:04:33.969Z,20.54
2018-06-29T22:07:03.288Z,20.48
2018-06-29T22:09:32.596Z,20.35
2018-06-29T22:12:02.029Z,20.35
2018-06-29T22:14:31.344Z,20.36
2018-06-29T22:17:00.676Z,20.36
2018-06-29T22:19:30.014Z,20.33
2018-06-29T22:21:59.384Z,20.20
2018-06-29T22:24:28.725Z,20.03
2018-06-29T22:26:58.067Z,20.05
2018-06-29T22:29:27.451Z,20.06
2018-06-29T22:31:56.830Z,20.01
2018-06-29T22:34:26.168Z,19.93
2018-06-29T22:36:55.689Z,19.68
2018-06-29T22:39:25.139Z,19.44
2018-06-29T22:41:54.447Z,19.37
2018-06-29T22:44:23.844Z,19.35
2018-06-29T22:46:53.141Z,19.40
2018-06-29T22:49:22.468Z,19.36
2018-06-29T22:51:51.800Z,19.41
2018-06-29T22:54:21.148Z,19.49
2018-06-29T22:56:50.504Z,19.52
2018-06-29T22:59:19.838Z,19.51
2018-06-29T23:01:49.221Z,19.36
2018-06-29T23:04:18.553Z,19.39
2018-06-29T23:06:48.052Z,19.42
2018-06-29T23:09:17.398Z,19.47
2018-06-29T23:11:46.732Z,19.51
2018-06-29T23:14:16.065Z,19.50
2018-06-29T23:16:45.468Z,19.57
2018-06-29T23:19:14.775Z,19.58
2018-06-29T23:21:44.145Z,19.50
2018-06-29T23:24:13.453Z,19.52
2018-06-29T23:26:42.783Z,19.51
2018-06-29T23:29:12.132Z,19.63
2018-06-29T23:31:41.519Z,19.71
2018-06-29T23:34:10.862Z,19.69
2018-06-29T23:36:40.184Z,19.78
2018-06-29T23:39:11.451Z,19.82
2018-06-29T23:41:40.800Z,19.83
2018-06-29T23:44:11.363Z,19.78
2018-06-29T23:46:40.701Z,19.85
2018-06-29T23:49:10.040Z,19.85
2018-06-29T23:51:39.376Z,19.94
2018-06-29T23:54:08.808Z,19.91
2018-06-29T23:56:38.180Z,19.94
2018-06-29T23:59:07.572Z,19.94
